sensor_id;sensor_type;location;lat;lon;timestamp;temperature;humidity
58983;DHT22;44771;49.982;8.560;2024-01-07T00:00:21;4.10;99.90
58983;DHT22;44771;49.982;8.560;2024-01-07T00:05:24;4.20;99.90
58983;DHT22;44771;49.982;8.560;2024-01-07T00:10:26;4.20;99.90
58983;DHT22;44771;49.982;8.560;2024-01-07T00:15:28;4.30;99.90
58983;DHT22;44771;49.982;8.560;2024-01-07T00:20:31;4.30;99.90
58983;DHT22;44771;49.982;8.560;2024-01-07T00:25:32;4.30;99.90
58983;DHT22;44771;49.982;8.560;2024-01-07T00:30:34;4.30;99.90
58983;DHT22;44771;49.982;8.560;2024-01-07T00:35:38;4.20;99.90
58983;DHT22;44771;49.982;8.560;2024-01-07T00:40:39;4.30;99.90
58983;DHT22;44771;49.982;8.560;2024-01-07T00:45:41;4.30;99.90
58983;DHT22;44771;49.982;8.560;2024-01-07T00:50:44;4.20;99.90
58983;DHT22;44771;49.982;8.560;2024-01-07T00:55:45;4.20;99.90
58983;DHT22;44771;49.982;8.560;2024-01-07T01:00:47;4.20;99.90
58983;DHT22;44771;49.982;8.560;2024-01-07T01:05:50;4.10;99.90
58983;DHT22;44771;49.982;8.560;2024-01-07T01:10:52;4.10;99.90
58983;DHT22;44771;49.982;8.560;2024-01-07T01:15:53;4.10;99.90
58983;DHT22;44771;49.982;8.560;2024-01-07T01:20:56;4.00;99.90
58983;DHT22;44771;49.982;8.560;2024-01-07T01:25:58;4.00;99.90
58983;DHT22;44771;49.982;8.560;2024-01-07T01:31:00;4.00;99.90
58983;DHT22;44771;49.982;8.560;2024-01-07T01:36:05;4.00;99.90
58983;DHT22;44771;49.982;8.560;2024-01-07T01:41:07;3.90;99.90
58983;DHT22;44771;49.982;8.560;2024-01-07T01:46:08;3.90;99.90
58983;DHT22;44771;49.982;8.560;2024-01-07T01:51:11;3.90;99.90
58983;DHT22;44771;49.982;8.560;2024-01-07T01:56:13;3.90;99.90
58983;DHT22;44771;49.982;8.560;2024-01-07T02:01:15;4.00;99.90
58983;DHT22;44771;49.982;8.560;2024-01-07T02:06:18;3.90;99.90
58983;DHT22;44771;49.982;8.560;2024-01-07T02:11:21;3.90;99.90
58983;DHT22;44771;49.982;8.560;2024-01-07T02:16:22;3.90;99.90
58983;DHT22;44771;49.982;8.560;2024-01-07T02:21:25;3.90;99.90
58983;DHT22;44771;49.982;8.560;2024-01-07T02:26:29;3.90;99.90
58983;DHT22;44771;49.982;8.560;2024-01-07T02:31:31;3.90;99.90
58983;DHT22;44771;49.982;8.560;2024-01-07T02:36:32;3.90;99.90
58983;DHT22;44771;49.982;8.560;2024-01-07T02:41:35;3.80;99.90
58983;DHT22;44771;49.982;8.560;2024-01-07T02:46:37;4.00;99.90
58983;DHT22;44771;49.982;8.560;2024-01-07T02:51:39;3.90;99.90
58983;DHT22;44771;49.982;8.560;2024-01-07T02:56:42;3.80;99.90
58983;DHT22;44771;49.982;8.560;2024-01-07T03:01:43;3.80;99.90
58983;DHT22;44771;49.982;8.560;2024-01-07T03:06:45;3.80;99.90
58983;DHT22;44771;49.982;8.560;2024-01-07T03:11:48;3.80;99.90
58983;DHT22;44771;49.982;8.560;2024-01-07T03:16:50;3.80;99.90
58983;DHT22;44771;49.982;8.560;2024-01-07T03:21:51;3.60;99.90
58983;DHT22;44771;49.982;8.560;2024-01-07T03:26:54;3.60;99.90
58983;DHT22;44771;49.982;8.560;2024-01-07T03:31:56;3.40;99.90
58983;DHT22;44771;49.982;8.560;2024-01-07T03:36:58;3.40;99.90
58983;DHT22;44771;49.982;8.560;2024-01-07T03:42:01;3.30;99.90
58983;DHT22;44771;49.982;8.560;2024-01-07T03:47:02;3.40;99.90
58983;DHT22;44771;49.982;8.560;2024-01-07T03:52:04;3.40;99.90
58983;DHT22;44771;49.982;8.560;2024-01-07T03:57:07;3.50;99.90
58983;DHT22;44771;49.982;8.560;2024-01-07T04:02:09;3.50;99.90
58983;DHT22;44771;49.982;8.560;2024-01-07T04:07:11;3.50;99.90
58983;DHT22;44771;49.982;8.560;2024-01-07T04:12:14;3.50;99.90
58983;DHT22;44771;49.982;8.560;2024-01-07T04:17:15;3.40;99.90
58983;DHT22;44771;49.982;8.560;2024-01-07T04:22:17;3.50;99.90
58983;DHT22;44771;49.982;8.560;2024-01-07T04:27:20;3.50;99.90
58983;DHT22;44771;49.982;8.560;2024-01-07T04:32:22;3.50;99.90
58983;DHT22;44771;49.982;8.560;2024-01-07T04:37:24;3.50;99.90
58983;DHT22;44771;49.982;8.560;2024-01-07T04:42:27;3.50;99.90
58983;DHT22;44771;49.982;8.560;2024-01-07T04:47:29;3.50;99.90
58983;DHT22;44771;49.982;8.560;2024-01-07T04:52:31;3.50;99.90
58983;DHT22;44771;49.982;8.560;2024-01-07T04:57:34;3.50;99.90
58983;DHT22;44771;49.982;8.560;2024-01-07T05:02:35;3.50;99.90
58983;DHT22;44771;49.982;8.560;2024-01-07T05:07:37;3.50;99.90
58983;DHT22;44771;49.982;8.560;2024-01-07T05:12:40;3.50;99.90
58983;DHT22;44771;49.982;8.560;2024-01-07T05:17:42;3.50;99.90
58983;DHT22;44771;49.982;8.560;2024-01-07T05:22:44;3.50;99.90
58983;DHT22;44771;49.982;8.560;2024-01-07T05:27:47;3.60;99.90
58983;DHT22;44771;49.982;8.560;2024-01-07T05:32:48;3.50;99.90
58983;DHT22;44771;49.982;8.560;2024-01-07T05:37:50;3.60;99.90
58983;DHT22;44771;49.982;8.560;2024-01-07T05:42:53;3.60;99.90
58983;DHT22;44771;49.982;8.560;2024-01-07T05:47:55;3.60;99.90
58983;DHT22;44771;49.982;8.560;2024-01-07T05:52:56;3.60;99.90
58983;DHT22;44771;49.982;8.560;2024-01-07T05:57:59;3.60;99.90
58983;DHT22;44771;49.982;8.560;2024-01-07T06:03:01;3.60;99.90
58983;DHT22;44771;49.982;8.560;2024-01-07T06:08:03;3.60;99.90
58983;DHT22;44771;49.982;8.560;2024-01-07T06:13:06;3.50;99.90
58983;DHT22;44771;49.982;8.560;2024-01-07T06:18:08;3.50;99.90
58983;DHT22;44771;49.982;8.560;2024-01-07T06:23:10;3.50;99.90
58983;DHT22;44771;49.982;8.560;2024-01-07T06:28:13;3.40;99.90
58983;DHT22;44771;49.982;8.560;2024-01-07T06:33:15;3.50;99.90
58983;DHT22;44771;49.982;8.560;2024-01-07T06:38:17;3.30;99.90
58983;DHT22;44771;49.982;8.560;2024-01-07T06:43:20;3.30;99.90
58983;DHT22;44771;49.982;8.560;2024-01-07T06:48:21;3.20;99.90
58983;DHT22;44771;49.982;8.560;2024-01-07T06:53:23;3.20;99.90
58983;DHT22;44771;49.982;8.560;2024-01-07T06:58:31;3.20;99.90
58983;DHT22;44771;49.982;8.560;2024-01-07T07:03:52;3.10;99.90
58983;DHT22;44771;49.982;8.560;2024-01-07T07:08:59;3.10;99.90
58983;DHT22;44771;49.982;8.560;2024-01-07T07:19:31;3.00;99.90
58983;DHT22;44771;49.982;8.560;2024-01-07T07:24:33;3.00;99.90
58983;DHT22;44771;49.982;8.560;2024-01-07T07:29:35;3.00;99.90
58983;DHT22;44771;49.982;8.560;2024-01-07T07:34:38;2.90;99.90
58983;DHT22;44771;49.982;8.560;2024-01-07T07:39:40;2.80;99.90
58983;DHT22;44771;49.982;8.560;2024-01-07T07:44:42;2.90;99.90
58983;DHT22;44771;49.982;8.560;2024-01-07T07:49:45;2.90;99.90
58983;DHT22;44771;49.982;8.560;2024-01-07T07:54:47;2.90;99.90
58983;DHT22;44771;49.982;8.560;2024-01-07T07:59:48;2.80;99.90
58983;DHT22;44771;49.982;8.560;2024-01-07T08:04:51;2.80;99.90
58983;DHT22;44771;49.982;8.560;2024-01-07T08:09:53;2.70;99.90
58983;DHT22;44771;49.982;8.560;2024-01-07T08:14:55;2.60;99.90
58983;DHT22;44771;49.982;8.560;2024-01-07T08:19:58;2.60;99.90
58983;DHT22;44771;49.982;8.560;2024-01-07T08:25:00;2.60;99.90
58983;DHT22;44771;49.982;8.560;2024-01-07T08:30:02;2.60;99.90
58983;DHT22;44771;49.982;8.560;2024-01-07T08:35:05;2.60;99.90
58983;DHT22;44771;49.982;8.560;2024-01-07T08:40:07;2.60;99.90
58983;DHT22;44771;49.982;8.560;2024-01-07T08:45:09;2.50;99.90
58983;DHT22;44771;49.982;8.560;2024-01-07T08:50:12;2.50;99.90
58983;DHT22;44771;49.982;8.560;2024-01-07T08:55:14;2.50;99.90
58983;DHT22;44771;49.982;8.560;2024-01-07T09:00:16;2.40;99.90
58983;DHT22;44771;49.982;8.560;2024-01-07T09:05:20;2.40;99.90
58983;DHT22;44771;49.982;8.560;2024-01-07T09:10:21;2.50;99.90
58983;DHT22;44771;49.982;8.560;2024-01-07T09:15:23;2.50;99.90
58983;DHT22;44771;49.982;8.560;2024-01-07T09:20:26;2.50;99.90
58983;DHT22;44771;49.982;8.560;2024-01-07T09:25:28;2.50;99.90
58983;DHT22;44771;49.982;8.560;2024-01-07T09:30:30;2.50;99.90
58983;DHT22;44771;49.982;8.560;2024-01-07T09:35:33;2.50;99.90
58983;DHT22;44771;49.982;8.560;2024-01-07T09:40:35;2.40;99.90
58983;DHT22;44771;49.982;8.560;2024-01-07T09:45:36;2.40;99.90
58983;DHT22;44771;49.982;8.560;2024-01-07T09:50:41;2.40;99.90
58983;DHT22;44771;49.982;8.560;2024-01-07T09:55:49;2.40;99.90
58983;DHT22;44771;49.982;8.560;2024-01-07T10:00:51;2.40;99.90
58983;DHT22;44771;49.982;8.560;2024-01-07T10:05:55;2.40;99.90
58983;DHT22;44771;49.982;8.560;2024-01-07T10:10:57;2.50;99.90
58983;DHT22;44771;49.982;8.560;2024-01-07T10:15:59;2.60;99.90
58983;DHT22;44771;49.982;8.560;2024-01-07T10:21:03;2.40;99.90
58983;DHT22;44771;49.982;8.560;2024-01-07T10:26:04;2.40;99.90
58983;DHT22;44771;49.982;8.560;2024-01-07T10:31:20;2.30;99.90
58983;DHT22;44771;49.982;8.560;2024-01-07T10:36:23;2.30;99.90
58983;DHT22;44771;49.982;8.560;2024-01-07T10:41:25;2.40;99.90
58983;DHT22;44771;49.982;8.560;2024-01-07T10:46:28;2.40;99.90
58983;DHT22;44771;49.982;8.560;2024-01-07T10:51:33;2.30;99.90
58983;DHT22;44771;49.982;8.560;2024-01-07T10:56:38;2.30;99.90
58983;DHT22;44771;49.982;8.560;2024-01-07T11:01:40;2.30;99.90
58983;DHT22;44771;49.982;8.560;2024-01-07T11:06:48;2.40;99.90
58983;DHT22;44771;49.982;8.560;2024-01-07T11:11:50;2.30;99.90
58983;DHT22;44771;49.982;8.560;2024-01-07T11:16:52;2.40;99.90
58983;DHT22;44771;49.982;8.560;2024-01-07T11:21:58;2.40;99.90
58983;DHT22;44771;49.982;8.560;2024-01-07T11:27:20;2.20;99.90
58983;DHT22;44771;49.982;8.560;2024-01-07T11:32:22;2.10;99.90
58983;DHT22;44771;49.982;8.560;2024-01-07T11:37:25;2.10;99.90
58983;DHT22;44771;49.982;8.560;2024-01-07T11:42:27;2.10;99.90
58983;DHT22;44771;49.982;8.560;2024-01-07T11:47:29;2.10;99.90
58983;DHT22;44771;49.982;8.560;2024-01-07T11:52:32;2.00;99.90
58983;DHT22;44771;49.982;8.560;2024-01-07T11:57:34;2.00;99.90
58983;DHT22;44771;49.982;8.560;2024-01-07T12:02:35;2.20;99.90
58983;DHT22;44771;49.982;8.560;2024-01-07T12:07:38;2.20;99.90
58983;DHT22;44771;49.982;8.560;2024-01-07T12:12:40;2.20;99.90
58983;DHT22;44771;49.982;8.560;2024-01-07T12:17:47;2.20;99.90
58983;DHT22;44771;49.982;8.560;2024-01-07T12:22:50;2.10;99.90
58983;DHT22;44771;49.982;8.560;2024-01-07T12:27:52;2.10;99.90
58983;DHT22;44771;49.982;8.560;2024-01-07T12:32:54;2.10;99.90
58983;DHT22;44771;49.982;8.560;2024-01-07T12:37:58;2.10;99.90
58983;DHT22;44771;49.982;8.560;2024-01-07T12:43:00;2.00;99.90
58983;DHT22;44771;49.982;8.560;2024-01-07T12:48:03;2.00;99.90
58983;DHT22;44771;49.982;8.560;2024-01-07T12:53:07;2.00;99.90
58983;DHT22;44771;49.982;8.560;2024-01-07T12:58:09;2.00;99.90
58983;DHT22;44771;49.982;8.560;2024-01-07T13:03:11;1.90;99.90
58983;DHT22;44771;49.982;8.560;2024-01-07T13:08:14;1.90;99.90
58983;DHT22;44771;49.982;8.560;2024-01-07T13:13:16;2.00;99.90
58983;DHT22;44771;49.982;8.560;2024-01-07T13:18:17;1.90;99.90
58983;DHT22;44771;49.982;8.560;2024-01-07T13:23:21;1.80;99.90
58983;DHT22;44771;49.982;8.560;2024-01-07T13:28:22;1.70;99.90
58983;DHT22;44771;49.982;8.560;2024-01-07T13:33:24;1.60;99.90
58983;DHT22;44771;49.982;8.560;2024-01-07T13:38:27;1.60;99.90
58983;DHT22;44771;49.982;8.560;2024-01-07T13:43:29;1.60;99.90
58983;DHT22;44771;49.982;8.560;2024-01-07T13:48:31;1.50;99.90
58983;DHT22;44771;49.982;8.560;2024-01-07T13:53:34;1.50;99.90
58983;DHT22;44771;49.982;8.560;2024-01-07T13:58:35;1.50;99.90
58983;DHT22;44771;49.982;8.560;2024-01-07T14:03:37;1.50;99.90
58983;DHT22;44771;49.982;8.560;2024-01-07T14:08:40;1.30;99.90
58983;DHT22;44771;49.982;8.560;2024-01-07T14:13:42;1.20;99.90
58983;DHT22;44771;49.982;8.560;2024-01-07T14:18:44;1.10;99.90
58983;DHT22;44771;49.982;8.560;2024-01-07T14:23:47;1.00;99.90
58983;DHT22;44771;49.982;8.560;2024-01-07T14:28:48;1.00;99.90
58983;DHT22;44771;49.982;8.560;2024-01-07T14:34:05;0.90;99.90
58983;DHT22;44771;49.982;8.560;2024-01-07T14:39:10;0.80;99.90
58983;DHT22;44771;49.982;8.560;2024-01-07T14:44:12;0.90;99.90
58983;DHT22;44771;49.982;8.560;2024-01-07T14:49:17;0.80;99.90
58983;DHT22;44771;49.982;8.560;2024-01-07T14:54:21;0.70;99.90
58983;DHT22;44771;49.982;8.560;2024-01-07T14:59:22;0.60;99.90
58983;DHT22;44771;49.982;8.560;2024-01-07T15:04:24;0.50;99.90
58983;DHT22;44771;49.982;8.560;2024-01-07T15:09:30;0.50;99.90
58983;DHT22;44771;49.982;8.560;2024-01-07T15:14:34;0.30;99.90
58983;DHT22;44771;49.982;8.560;2024-01-07T15:19:36;0.20;99.90
58983;DHT22;44771;49.982;8.560;2024-01-07T15:24:39;0.20;99.90
58983;DHT22;44771;49.982;8.560;2024-01-07T15:29:40;0.20;99.90
58983;DHT22;44771;49.982;8.560;2024-01-07T15:34:42;0.10;99.90
58983;DHT22;44771;49.982;8.560;2024-01-07T15:39:45;0.00;99.90
58983;DHT22;44771;49.982;8.560;2024-01-07T15:44:47;-0.20;99.90
58983;DHT22;44771;49.982;8.560;2024-01-07T15:49:48;-0.30;99.90
58983;DHT22;44771;49.982;8.560;2024-01-07T15:54:52;-0.30;99.90
58983;DHT22;44771;49.982;8.560;2024-01-07T15:59:54;-0.40;99.90
58983;DHT22;44771;49.982;8.560;2024-01-07T16:04:55;-0.50;99.90
58983;DHT22;44771;49.982;8.560;2024-01-07T16:09:59;-0.60;99.90
58983;DHT22;44771;49.982;8.560;2024-01-07T16:15:01;-0.70;99.90
58983;DHT22;44771;49.982;8.560;2024-01-07T16:20:02;-0.80;99.90
58983;DHT22;44771;49.982;8.560;2024-01-07T16:25:06;-0.80;99.90
58983;DHT22;44771;49.982;8.560;2024-01-07T16:30:09;-0.90;99.90
58983;DHT22;44771;49.982;8.560;2024-01-07T16:35:11;-0.90;99.90
58983;DHT22;44771;49.982;8.560;2024-01-07T16:40:14;-0.90;99.90
58983;DHT22;44771;49.982;8.560;2024-01-07T16:45:16;-0.90;99.90
58983;DHT22;44771;49.982;8.560;2024-01-07T16:50:18;-1.00;99.90
58983;DHT22;44771;49.982;8.560;2024-01-07T16:55:27;-1.00;99.90
58983;DHT22;44771;49.982;8.560;2024-01-07T17:00:29;-1.10;99.90
58983;DHT22;44771;49.982;8.560;2024-01-07T17:05:31;-1.10;99.90
58983;DHT22;44771;49.982;8.560;2024-01-07T17:10:34;-1.10;99.90
58983;DHT22;44771;49.982;8.560;2024-01-07T17:15:35;-1.10;99.90
58983;DHT22;44771;49.982;8.560;2024-01-07T17:20:37;-1.20;99.90
58983;DHT22;44771;49.982;8.560;2024-01-07T17:25:40;-1.20;99.90
58983;DHT22;44771;49.982;8.560;2024-01-07T17:30:42;-1.30;99.90
58983;DHT22;44771;49.982;8.560;2024-01-07T17:35:44;-1.30;99.90
58983;DHT22;44771;49.982;8.560;2024-01-07T17:40:47;-1.40;99.90
58983;DHT22;44771;49.982;8.560;2024-01-07T17:45:50;-1.30;99.90
58983;DHT22;44771;49.982;8.560;2024-01-07T17:50:51;-1.30;99.90
58983;DHT22;44771;49.982;8.560;2024-01-07T17:55:55;-1.40;99.90
58983;DHT22;44771;49.982;8.560;2024-01-07T18:00:59;-1.40;99.80
58983;DHT22;44771;49.982;8.560;2024-01-07T18:06:00;-1.40;99.90
58983;DHT22;44771;49.982;8.560;2024-01-07T18:11:04;-1.40;99.90
58983;DHT22;44771;49.982;8.560;2024-01-07T18:16:05;-1.40;99.90
58983;DHT22;44771;49.982;8.560;2024-01-07T18:21:07;-1.40;99.90
58983;DHT22;44771;49.982;8.560;2024-01-07T18:26:10;-1.40;99.90
58983;DHT22;44771;49.982;8.560;2024-01-07T18:31:12;-1.50;99.00
58983;DHT22;44771;49.982;8.560;2024-01-07T18:36:21;-1.40;99.40
58983;DHT22;44771;49.982;8.560;2024-01-07T18:41:27;-1.40;99.20
58983;DHT22;44771;49.982;8.560;2024-01-07T18:46:29;-1.50;99.50
58983;DHT22;44771;49.982;8.560;2024-01-07T18:51:32;-1.60;99.70
58983;DHT22;44771;49.982;8.560;2024-01-07T18:56:44;-1.50;99.20
58983;DHT22;44771;49.982;8.560;2024-01-07T19:01:46;-1.50;99.30
58983;DHT22;44771;49.982;8.560;2024-01-07T19:06:49;-1.50;99.10
58983;DHT22;44771;49.982;8.560;2024-01-07T19:11:54;-1.50;99.50
58983;DHT22;44771;49.982;8.560;2024-01-07T19:16:58;-1.50;99.60
58983;DHT22;44771;49.982;8.560;2024-01-07T19:22:10;-1.50;99.30
58983;DHT22;44771;49.982;8.560;2024-01-07T19:27:30;-1.50;99.70
58983;DHT22;44771;49.982;8.560;2024-01-07T19:32:32;-1.40;99.90
58983;DHT22;44771;49.982;8.560;2024-01-07T19:37:34;-1.50;99.40
58983;DHT22;44771;49.982;8.560;2024-01-07T19:42:40;-1.40;99.70
58983;DHT22;44771;49.982;8.560;2024-01-07T19:47:43;-1.40;99.70
58983;DHT22;44771;49.982;8.560;2024-01-07T19:52:45;-1.40;99.70
58983;DHT22;44771;49.982;8.560;2024-01-07T19:57:52;-1.40;99.90
58983;DHT22;44771;49.982;8.560;2024-01-07T20:03:00;-1.40;99.70
58983;DHT22;44771;49.982;8.560;2024-01-07T20:08:15;-1.30;99.50
58983;DHT22;44771;49.982;8.560;2024-01-07T20:13:19;-1.20;99.90
58983;DHT22;44771;49.982;8.560;2024-01-07T20:18:20;-1.20;99.60
58983;DHT22;44771;49.982;8.560;2024-01-07T20:23:22;-1.20;99.90
58983;DHT22;44771;49.982;8.560;2024-01-07T20:28:26;-1.20;99.90
58983;DHT22;44771;49.982;8.560;2024-01-07T20:33:27;-1.10;99.80
58983;DHT22;44771;49.982;8.560;2024-01-07T20:38:29;-1.10;99.90
58983;DHT22;44771;49.982;8.560;2024-01-07T20:43:32;-1.10;99.90
58983;DHT22;44771;49.982;8.560;2024-01-07T20:48:34;-1.00;99.00
58983;DHT22;44771;49.982;8.560;2024-01-07T20:53:50;-1.00;99.20
58983;DHT22;44771;49.982;8.560;2024-01-07T20:59:03;-1.00;99.70
58983;DHT22;44771;49.982;8.560;2024-01-07T21:04:05;-0.90;98.80
58983;DHT22;44771;49.982;8.560;2024-01-07T21:09:06;-0.90;99.00
58983;DHT22;44771;49.982;8.560;2024-01-07T21:14:10;-1.00;99.20
58983;DHT22;44771;49.982;8.560;2024-01-07T21:19:11;-0.90;98.80
58983;DHT22;44771;49.982;8.560;2024-01-07T21:24:13;-0.90;98.60
58983;DHT22;44771;49.982;8.560;2024-01-07T21:29:16;-0.90;98.70
58983;DHT22;44771;49.982;8.560;2024-01-07T21:34:18;-0.90;98.70
58983;DHT22;44771;49.982;8.560;2024-01-07T21:39:20;-0.80;98.00
58983;DHT22;44771;49.982;8.560;2024-01-07T21:44:23;-0.80;98.20
58983;DHT22;44771;49.982;8.560;2024-01-07T21:49:24;-0.80;98.70
58983;DHT22;44771;49.982;8.560;2024-01-07T21:54:26;-0.80;98.50
58983;DHT22;44771;49.982;8.560;2024-01-07T21:59:29;-0.80;97.90
58983;DHT22;44771;49.982;8.560;2024-01-07T22:04:31;-0.90;98.80
58983;DHT22;44771;49.982;8.560;2024-01-07T22:09:33;-0.80;98.70
58983;DHT22;44771;49.982;8.560;2024-01-07T22:14:36;-0.80;98.50
58983;DHT22;44771;49.982;8.560;2024-01-07T22:19:38;-0.80;98.50
58983;DHT22;44771;49.982;8.560;2024-01-07T22:24:40;-0.80;98.70
58983;DHT22;44771;49.982;8.560;2024-01-07T22:29:43;-0.80;98.80
58983;DHT22;44771;49.982;8.560;2024-01-07T22:34:45;-0.80;98.50
58983;DHT22;44771;49.982;8.560;2024-01-07T22:39:46;-0.80;98.50
58983;DHT22;44771;49.982;8.560;2024-01-07T22:44:50;-0.80;99.10
58983;DHT22;44771;49.982;8.560;2024-01-07T22:49:51;-0.80;98.30
58983;DHT22;44771;49.982;8.560;2024-01-07T22:54:53;-0.70;98.30
58983;DHT22;44771;49.982;8.560;2024-01-07T22:59:56;-0.80;98.10
58983;DHT22;44771;49.982;8.560;2024-01-07T23:04:59;-0.80;98.30
58983;DHT22;44771;49.982;8.560;2024-01-07T23:10:00;-0.70;97.90
58983;DHT22;44771;49.982;8.560;2024-01-07T23:15:04;-0.70;98.10
58983;DHT22;44771;49.982;8.560;2024-01-07T23:20:06;-0.70;98.20
58983;DHT22;44771;49.982;8.560;2024-01-07T23:25:08;-0.70;98.20
58983;DHT22;44771;49.982;8.560;2024-01-07T23:30:12;-0.70;97.90
58983;DHT22;44771;49.982;8.560;2024-01-07T23:35:14;-0.70;98.00
58983;DHT22;44771;49.982;8.560;2024-01-07T23:40:15;-0.70;98.00
58983;DHT22;44771;49.982;8.560;2024-01-07T23:45:19;-0.70;97.80
58983;DHT22;44771;49.982;8.560;2024-01-07T23:50:20;-0.80;97.50
58983;DHT22;44771;49.982;8.560;2024-01-07T23:55:22;-0.70;97.60
